createdAt,value
2018-10-12T00:02:11.377Z,90.70
2018-10-12T00:04:38.999Z,90.90
2018-10-12T00:07:06.568Z,91.30
2018-10-12T00:09:34.159Z,92.20
2018-10-12T00:12:01.768Z,92.30
2018-10-12T00:14:29.287Z,92.30
2018-10-12T00:16:56.783Z,92.80
2018-10-12T00:19:24.259Z,92.10
2018-10-12T00:21:51.742Z,91.90
2018-10-12T00:24:19.270Z,91.80
2018-10-12T00:26:46.772Z,91.80
2018-10-12T00:29:14.304Z,91.70
2018-10-12T00:31:41.821Z,91.90
2018-10-12T00:34:09.351Z,91.90
2018-10-12T00:36:36.928Z,91.90
2018-10-12T00:39:06.264Z,92.10
2018-10-12T00:41:33.803Z,92.30
2018-10-12T00:44:01.327Z,92.30
2018-10-12T00:46:28.828Z,92.40
2018-10-12T00:48:56.328Z,92.40
2018-10-12T00:51:23.876Z,92.70
2018-10-12T00:53:51.484Z,92.80
2018-10-12T00:56:19.012Z,92.80
2018-10-12T00:58:46.565Z,92.90
2018-10-12T01:01:15.595Z,93.00
2018-10-12T01:03:43.152Z,93.30
2018-10-12T01:06:10.835Z,93.40
2018-10-12T01:08:38.386Z,93.70
2018-10-12T01:11:05.958Z,93.70
2018-10-12T01:13:33.513Z,94.00
2018-10-12T01:16:01.085Z,94.10
2018-10-12T01:18:28.624Z,94.50
2018-10-12T01:20:56.191Z,94.40
2018-10-12T01:23:23.815Z,94.30
2018-10-12T01:25:51.442Z,94.40
2018-10-12T01:28:19.043Z,94.40
2018-10-12T01:30:46.619Z,94.30
2018-10-12T01:33:14.184Z,94.30
2018-10-12T01:35:41.724Z,94.40
2018-10-12T01:38:09.224Z,94.40
2018-10-12T01:40:36.792Z,94.40
2018-10-12T01:43:04.320Z,94.60
2018-10-12T01:45:31.860Z,94.60
2018-10-12T01:47:59.439Z,94.80
2018-10-12T01:50:27.000Z,94.90
2018-10-12T01:52:54.547Z,95.30
2018-10-12T01:55:22.090Z,95.10
2018-10-12T01:57:49.618Z,95.20
2018-10-12T02:00:17.203Z,95.40
2018-10-12T02:02:44.737Z,95.70
2018-10-12T02:05:12.255Z,96.10
2018-10-12T02:07:39.801Z,96.30
2018-10-12T02:10:07.579Z,96.10
2018-10-12T02:12:35.125Z,96.10
2018-10-12T02:15:02.755Z,96.10
2018-10-12T02:17:30.277Z,95.80
2018-10-12T02:19:57.789Z,95.60
2018-10-12T02:22:25.315Z,95.70
2018-10-12T02:24:52.822Z,95.70
2018-10-12T02:27:20.457Z,95.80
2018-10-12T02:29:47.926Z,95.80
2018-10-12T02:32:15.454Z,96.00
2018-10-12T02:34:42.981Z,96.00
2018-10-12T02:37:10.495Z,96.20
2018-10-12T02:39:38.019Z,96.20
2018-10-12T02:42:05.915Z,96.20
2018-10-12T02:44:33.443Z,96.30
2018-10-12T02:47:00.948Z,96.30
2018-10-12T02:49:28.442Z,96.40
2018-10-12T02:51:55.962Z,96.50
2018-10-12T02:54:23.469Z,96.50
2018-10-12T02:56:50.996Z,96.50
2018-10-12T02:59:18.513Z,96.60
2018-10-12T03:01:46.009Z,96.70
2018-10-12T03:04:13.536Z,97.30
2018-10-12T03:06:41.035Z,97.70
2018-10-12T03:09:09.959Z,97.40
2018-10-12T03:11:37.491Z,97.50
2018-10-12T03:14:05.077Z,97.60
2018-10-12T03:16:32.591Z,97.60
2018-10-12T03:19:00.125Z,97.60
2018-10-12T03:21:28.179Z,97.70
2018-10-12T03:23:55.686Z,97.80
2018-10-12T03:26:23.205Z,97.80
2018-10-12T03:28:50.760Z,97.90
2018-10-12T03:31:18.374Z,97.90
2018-10-12T03:33:45.962Z,97.90
2018-10-12T03:36:13.560Z,97.90
2018-10-12T03:38:41.227Z,98.00
2018-10-12T03:41:08.801Z,97.90
2018-10-12T03:43:36.353Z,97.90
2018-10-12T03:46:03.945Z,98.00
2018-10-12T03:48:31.517Z,98.00
2018-10-12T03:50:59.069Z,98.00
2018-10-12T03:53:26.637Z,98.10
2018-10-12T03:55:54.192Z,98.10
2018-10-12T03:58:21.733Z,98.20
2018-10-12T04:00:49.269Z,98.10
2018-10-12T04:03:16.933Z,98.20
2018-10-12T04:05:44.464Z,98.20
2018-10-12T04:08:11.979Z,98.20
2018-10-12T04:10:39.507Z,98.30
2018-10-12T04:13:07.525Z,98.40
2018-10-12T04:15:35.063Z,98.30
2018-10-12T04:18:02.581Z,98.30
2018-10-12T04:20:30.115Z,98.30
2018-10-12T04:22:57.656Z,98.40
2018-10-12T04:25:25.169Z,98.40
2018-10-12T04:27:52.683Z,98.40
2018-10-12T04:30:20.229Z,98.30
2018-10-12T04:32:47.821Z,98.30
2018-10-12T04:35:15.337Z,98.30
2018-10-12T04:37:42.968Z,98.30
2018-10-12T04:40:33.758Z,98.40
2018-10-12T04:43:01.318Z,98.30
2018-10-12T04:45:29.076Z,98.60
2018-10-12T04:47:56.746Z,98.30
2018-10-12T04:50:24.336Z,98.30
2018-10-12T04:52:51.919Z,98.30
2018-10-12T04:55:19.508Z,98.30
2018-10-12T04:57:47.051Z,98.40
2018-10-12T05:00:14.589Z,98.40
2018-10-12T05:02:42.287Z,98.50
2018-10-12T05:05:09.814Z,98.50
2018-10-12T05:07:37.413Z,98.60
2018-10-12T05:10:05.009Z,98.60
2018-10-12T05:12:32.553Z,98.10
2018-10-12T05:15:00.051Z,98.40
2018-10-12T05:17:27.577Z,98.40
2018-10-12T05:19:55.064Z,98.40
2018-10-12T05:22:22.629Z,98.40
2018-10-12T05:24:50.140Z,98.30
2018-10-12T05:27:17.651Z,98.30
2018-10-12T05:29:45.222Z,98.40
2018-10-12T05:32:13.940Z,98.40
2018-10-12T05:34:41.622Z,98.40
2018-10-12T05:37:09.124Z,98.40
2018-10-12T05:39:36.664Z,98.80
2018-10-12T05:42:04.202Z,98.50
2018-10-12T05:44:31.722Z,98.50
2018-10-12T05:46:59.259Z,98.60
2018-10-12T05:49:37.979Z,98.60
2018-10-12T05:52:05.598Z,98.60
2018-10-12T05:54:33.228Z,98.60
2018-10-12T05:57:00.830Z,98.60
2018-10-12T05:59:28.437Z,98.70
2018-10-12T06:01:56.015Z,98.70
2018-10-12T06:04:23.626Z,98.80
2018-10-12T06:06:51.240Z,98.70
2018-10-12T06:09:18.847Z,98.80
2018-10-12T06:11:46.372Z,98.80
2018-10-12T06:14:13.912Z,98.80
2018-10-12T06:16:41.550Z,98.70
2018-10-12T06:19:09.089Z,98.20
2018-10-12T06:21:36.682Z,98.20
2018-10-12T06:24:04.202Z,98.20
2018-10-12T06:26:31.790Z,98.20
2018-10-12T06:28:59.373Z,98.20
2018-10-12T06:31:26.898Z,98.20
2018-10-12T06:33:54.401Z,98.20
2018-10-12T06:36:21.950Z,98.10
2018-10-12T06:38:49.508Z,98.10
2018-10-12T06:41:17.196Z,98.20
2018-10-12T06:43:44.707Z,98.10
2018-10-12T06:46:12.286Z,98.10
2018-10-12T06:48:39.816Z,98.20
2018-10-12T06:51:07.741Z,98.60
2018-10-12T06:53:35.376Z,98.90
2018-10-12T06:56:02.951Z,99.90
2018-10-12T06:58:30.515Z,99.90
2018-10-12T07:00:59.923Z,99.90
2018-10-12T07:03:27.588Z,99.20
2018-10-12T07:05:55.269Z,96.30
2018-10-12T07:08:22.899Z,92.10
2018-10-12T07:10:51.178Z,85.20
2018-10-12T07:13:18.723Z,75.60
2018-10-12T07:15:46.240Z,70.40
2018-10-12T07:18:13.778Z,65.80
2018-10-12T07:20:41.304Z,59.70
2018-10-12T07:23:08.862Z,56.40
2018-10-12T07:25:36.789Z,53.50
2018-10-12T07:28:04.342Z,50.70
2018-10-12T07:30:31.907Z,48.60
2018-10-12T07:32:59.493Z,46.60
2018-10-12T07:35:27.035Z,44.90
2018-10-12T07:37:54.575Z,43.60
2018-10-12T07:40:22.091Z,41.80
2018-10-12T07:42:49.620Z,40.90
2018-10-12T07:45:17.129Z,39.90
2018-10-12T07:47:44.643Z,38.90
2018-10-12T07:50:12.383Z,37.50
2018-10-12T07:52:39.941Z,36.00
2018-10-12T07:55:07.473Z,35.00
2018-10-12T07:57:35.000Z,34.70
2018-10-12T08:00:02.742Z,33.70
2018-10-12T08:02:30.226Z,33.10
2018-10-12T08:04:57.751Z,33.90
2018-10-12T08:07:25.286Z,34.70
2018-10-12T08:09:53.168Z,34.80
2018-10-12T08:12:20.832Z,33.70
2018-10-12T08:14:48.419Z,32.80
2018-10-12T08:17:16.060Z,32.30
2018-10-12T08:19:43.699Z,31.80
2018-10-12T08:22:11.312Z,31.70
2018-10-12T08:24:38.948Z,32.00
2018-10-12T08:27:06.796Z,31.80
2018-10-12T08:29:34.241Z,32.10
2018-10-12T08:32:01.926Z,33.20
2018-10-12T08:34:29.493Z,33.60
2018-10-12T08:36:57.068Z,34.10
2018-10-12T08:39:24.591Z,34.30
2018-10-12T08:41:52.155Z,34.70
2018-10-12T08:44:19.749Z,34.80
2018-10-12T08:46:47.315Z,34.50
2018-10-12T08:49:14.977Z,34.70
2018-10-12T08:51:42.532Z,35.30
2018-10-12T08:54:10.160Z,36.00
2018-10-12T08:56:38.585Z,36.80
2018-10-12T08:59:06.250Z,37.60
2018-10-12T09:01:33.918Z,38.30
2018-10-12T09:04:01.532Z,39.10
2018-10-12T09:06:29.129Z,39.80
2018-10-12T09:08:56.761Z,40.50
2018-10-12T09:11:24.410Z,41.10
2018-10-12T09:13:51.981Z,41.50
2018-10-12T09:16:19.794Z,41.70
2018-10-12T09:18:47.342Z,42.00
2018-10-12T09:21:14.885Z,42.40
2018-10-12T09:23:42.453Z,42.70
2018-10-12T09:26:10.000Z,42.90
2018-10-12T09:28:37.861Z,43.20
2018-10-12T09:31:05.704Z,43.40
2018-10-12T09:33:33.363Z,43.40
2018-10-12T09:36:00.969Z,43.60
2018-10-12T09:38:28.537Z,43.90
2018-10-12T09:40:56.091Z,44.00
2018-10-12T09:43:23.674Z,44.30
2018-10-12T09:45:51.190Z,44.50
2018-10-12T09:48:18.750Z,44.60
2018-10-12T09:50:46.300Z,44.60
2018-10-12T09:53:13.894Z,44.80
2018-10-12T09:55:41.445Z,45.00
2018-10-12T09:58:08.996Z,45.10
2018-10-12T10:00:42.064Z,45.10
2018-10-12T10:03:15.203Z,45.30
2018-10-12T10:05:42.972Z,45.30
2018-10-12T10:08:10.714Z,45.10
2018-10-12T10:10:38.124Z,45.20
2018-10-12T10:13:05.722Z,45.50
2018-10-12T10:15:33.399Z,44.70
2018-10-12T10:18:00.850Z,44.70
2018-10-12T10:20:28.409Z,44.90
2018-10-12T10:22:56.015Z,45.10
2018-10-12T10:25:23.616Z,45.00
2018-10-12T10:27:51.215Z,45.10
2018-10-12T10:30:18.723Z,45.40
2018-10-12T10:32:46.229Z,45.70
2018-10-12T10:35:13.748Z,45.80
2018-10-12T10:37:41.271Z,45.90
2018-10-12T10:40:08.794Z,46.00
2018-10-12T10:42:36.372Z,46.20
2018-10-12T10:45:03.945Z,46.20
2018-10-12T10:47:31.474Z,46.50
2018-10-12T10:49:59.056Z,46.40
2018-10-12T10:52:26.572Z,46.50
2018-10-12T10:54:54.125Z,46.70
2018-10-12T10:57:21.662Z,46.60
2018-10-12T10:59:49.189Z,46.80
2018-10-12T11:02:16.710Z,47.00
2018-10-12T11:04:44.238Z,47.10
2018-10-12T11:07:11.766Z,47.10
2018-10-12T11:09:39.308Z,47.20
2018-10-12T11:12:06.823Z,47.00
2018-10-12T11:14:34.344Z,46.70
2018-10-12T11:17:01.836Z,46.80
2018-10-12T11:19:29.395Z,46.90
2018-10-12T11:21:56.853Z,46.80
2018-10-12T11:24:24.433Z,47.00
2018-10-12T11:26:51.999Z,47.20
2018-10-12T11:29:19.481Z,47.30
2018-10-12T11:31:47.013Z,47.40
2018-10-12T11:34:14.539Z,47.40
2018-10-12T11:36:42.104Z,47.50
2018-10-12T11:39:11.972Z,47.60
2018-10-12T11:41:39.639Z,47.60
2018-10-12T11:44:07.210Z,48.40
2018-10-12T11:46:34.731Z,47.90
2018-10-12T11:49:02.257Z,48.00
2018-10-12T11:51:29.862Z,48.00
2018-10-12T11:53:57.358Z,48.20
2018-10-12T11:56:24.880Z,48.30
2018-10-12T11:58:52.367Z,48.30
2018-10-12T12:01:19.867Z,48.10
2018-10-12T12:03:47.412Z,48.10
2018-10-12T12:06:14.917Z,48.10
2018-10-12T12:08:42.434Z,48.00
2018-10-12T12:11:09.941Z,47.90
2018-10-12T12:13:37.533Z,47.90
2018-10-12T12:16:05.045Z,47.80
2018-10-12T12:18:32.995Z,47.70
2018-10-12T12:21:00.531Z,47.60
2018-10-12T12:23:28.057Z,47.60
2018-10-12T12:25:55.572Z,47.40
2018-10-12T12:28:23.079Z,47.10
2018-10-12T12:30:50.538Z,47.10
2018-10-12T12:33:18.195Z,47.10
2018-10-12T12:35:45.992Z,47.30
2018-10-12T12:38:13.428Z,47.50
2018-10-12T12:40:41.016Z,47.60
2018-10-12T12:43:08.521Z,47.70
2018-10-12T12:45:36.083Z,47.90
2018-10-12T12:48:03.773Z,48.00
2018-10-12T12:50:31.148Z,48.10
2018-10-12T12:52:58.658Z,48.20
2018-10-12T12:55:26.190Z,48.80
2018-10-12T12:57:53.705Z,48.10
2018-10-12T13:00:21.284Z,48.10
2018-10-12T13:02:48.756Z,48.30
2018-10-12T13:05:16.303Z,48.40
2018-10-12T13:07:43.897Z,48.30
2018-10-12T13:10:11.451Z,48.30
2018-10-12T13:12:39.011Z,48.40
2018-10-12T13:15:06.626Z,48.40
2018-10-12T13:17:34.125Z,48.50
2018-10-12T13:20:02.651Z,48.30
2018-10-12T13:22:30.237Z,48.00
2018-10-12T13:24:57.704Z,47.70
2018-10-12T13:27:25.220Z,47.50
2018-10-12T13:29:52.775Z,47.20
2018-10-12T13:32:20.299Z,47.30
2018-10-12T13:34:47.831Z,47.20
2018-10-12T13:37:15.342Z,47.10
2018-10-12T13:39:42.843Z,46.90
2018-10-12T13:42:10.313Z,46.80
2018-10-12T13:44:37.819Z,46.90
2018-10-12T13:47:05.334Z,46.70
2018-10-12T13:49:32.833Z,46.60
2018-10-12T13:52:00.352Z,46.70
2018-10-12T13:54:27.915Z,48.20
2018-10-12T13:56:57.969Z,48.60
2018-10-12T13:59:27.117Z,49.40
2018-10-12T14:01:54.649Z,49.80
2018-10-12T14:04:22.209Z,50.20
2018-10-12T14:06:49.775Z,50.50
2018-10-12T14:09:17.273Z,50.50
2018-10-12T14:11:44.803Z,50.70
2018-10-12T14:14:12.318Z,50.70
2018-10-12T14:16:39.827Z,51.00
2018-10-12T14:19:07.573Z,51.10
2018-10-12T14:21:34.993Z,51.30
2018-10-12T14:24:02.535Z,51.30
2018-10-12T14:26:30.131Z,51.40
2018-10-12T14:28:57.738Z,51.40
2018-10-12T14:31:25.380Z,51.50
2018-10-12T14:33:53.394Z,51.50
2018-10-12T14:36:21.052Z,51.60
2018-10-12T14:38:48.655Z,51.80
2018-10-12T14:41:16.195Z,51.80
2018-10-12T14:43:43.816Z,52.00
2018-10-12T14:46:11.376Z,52.10
2018-10-12T14:48:38.968Z,52.30
2018-10-12T14:51:06.999Z,52.50
2018-10-12T14:53:34.595Z,52.70
2018-10-12T14:56:02.146Z,52.70
2018-10-12T14:58:29.667Z,52.70
2018-10-12T15:00:57.195Z,52.90
2018-10-12T15:03:24.763Z,53.00
2018-10-12T15:05:52.370Z,53.60
2018-10-12T15:08:19.920Z,53.10
2018-10-12T15:10:47.483Z,53.10
2018-10-12T15:13:15.916Z,53.30
2018-10-12T15:15:43.482Z,53.40
2018-10-12T15:18:11.050Z,53.40
2018-10-12T15:20:38.590Z,53.60
2018-10-12T15:23:06.193Z,53.70
2018-10-12T15:25:33.824Z,53.90
2018-10-12T15:28:01.382Z,54.00
2018-10-12T15:30:28.971Z,53.90
2018-10-12T15:32:56.552Z,54.10
2018-10-12T15:35:24.126Z,54.20
2018-10-12T15:37:51.732Z,54.40
2018-10-12T15:40:19.420Z,54.50
2018-10-12T15:42:47.038Z,54.80
2018-10-12T15:45:14.604Z,54.80
2018-10-12T15:47:42.177Z,55.00
2018-10-12T15:50:09.790Z,55.00
2018-10-12T15:52:37.371Z,55.20
2018-10-12T15:55:04.922Z,55.40
2018-10-12T15:57:32.480Z,55.90
2018-10-12T16:00:00.012Z,55.80
2018-10-12T16:02:27.585Z,55.90
2018-10-12T16:04:55.251Z,56.30
2018-10-12T16:07:22.845Z,56.40
2018-10-12T16:09:51.457Z,56.70
2018-10-12T16:12:19.814Z,57.00
2018-10-12T16:14:47.435Z,57.40
2018-10-12T16:17:14.982Z,57.70
2018-10-12T16:19:42.568Z,58.00
2018-10-12T16:22:10.576Z,58.40
2018-10-12T16:24:48.324Z,58.70
2018-10-12T16:27:15.904Z,59.00
2018-10-12T16:29:43.452Z,59.30
2018-10-12T16:32:11.004Z,59.70
2018-10-12T16:34:38.556Z,60.00
2018-10-12T16:37:06.256Z,60.50
2018-10-12T16:39:33.825Z,60.90
2018-10-12T16:42:01.422Z,61.30
2018-10-12T16:44:29.113Z,61.80
2018-10-12T16:46:56.723Z,62.30
2018-10-12T16:49:24.231Z,62.70
2018-10-12T16:51:51.775Z,63.20
2018-10-12T16:54:19.319Z,63.70
2018-10-12T16:56:46.912Z,64.10
2018-10-12T16:59:14.468Z,64.50
2018-10-12T17:01:42.007Z,64.80
2018-10-12T17:04:09.627Z,65.10
2018-10-12T17:06:37.173Z,65.30
2018-10-12T17:09:05.530Z,65.60
2018-10-12T17:11:33.122Z,65.80
2018-10-12T17:14:00.684Z,66.00
2018-10-12T17:16:28.232Z,66.20
2018-10-12T17:18:55.822Z,66.10
2018-10-12T17:21:23.474Z,66.20
2018-10-12T17:23:51.191Z,66.30
2018-10-12T17:26:18.761Z,66.70
2018-10-12T17:28:46.378Z,67.00
2018-10-12T17:31:13.999Z,67.50
2018-10-12T17:33:41.572Z,67.70
2018-10-12T17:36:09.182Z,68.20
2018-10-12T17:38:36.884Z,68.70
2018-10-12T17:41:15.913Z,68.90
2018-10-12T17:43:43.452Z,69.40
2018-10-12T17:46:11.005Z,69.90
2018-10-12T17:48:38.616Z,70.20
2018-10-12T17:51:06.346Z,70.60
2018-10-12T17:53:34.079Z,71.60
2018-10-12T17:56:01.674Z,71.30
2018-10-12T17:58:29.303Z,71.80
2018-10-12T18:00:56.874Z,71.80
2018-10-12T18:03:24.435Z,72.30
2018-10-12T18:05:52.061Z,72.50
2018-10-12T18:08:19.640Z,72.40
2018-10-12T18:10:47.215Z,72.60
2018-10-12T18:13:14.825Z,72.80
2018-10-12T18:15:42.360Z,72.90
2018-10-12T18:18:09.906Z,73.10
2018-10-12T18:20:37.468Z,73.30
2018-10-12T18:23:05.104Z,73.80
2018-10-12T18:25:32.623Z,74.30
2018-10-12T18:28:00.197Z,74.70
2018-10-12T18:30:27.736Z,75.20
2018-10-12T18:32:55.327Z,75.40
2018-10-12T18:35:22.853Z,75.70
2018-10-12T18:37:50.353Z,76.10
2018-10-12T18:40:17.911Z,76.40
2018-10-12T18:42:45.481Z,76.70
2018-10-12T18:45:13.159Z,77.10
2018-10-12T18:47:40.786Z,77.50
2018-10-12T18:50:08.326Z,78.00
2018-10-12T18:52:35.874Z,78.40
2018-10-12T18:55:03.434Z,78.70
2018-10-12T18:57:33.502Z,79.00
2018-10-12T19:00:02.273Z,79.40
2018-10-12T19:02:29.766Z,79.70
2018-10-12T19:04:57.330Z,79.90
2018-10-12T19:07:24.740Z,80.20
2018-10-12T19:09:52.295Z,80.50
2018-10-12T19:12:19.844Z,80.80
2018-10-12T19:14:47.428Z,81.10
2018-10-12T19:17:15.015Z,81.40
2018-10-12T19:19:42.616Z,81.60
2018-10-12T19:22:10.153Z,81.60
2018-10-12T19:24:37.672Z,81.40
2018-10-12T19:27:05.564Z,82.30
2018-10-12T19:29:33.143Z,81.50
2018-10-12T19:32:00.709Z,81.90
2018-10-12T19:34:28.256Z,81.70
2018-10-12T19:36:55.823Z,82.00
2018-10-12T19:39:23.357Z,82.40
2018-10-12T19:41:50.887Z,82.60
2018-10-12T19:44:18.449Z,83.00
2018-10-12T19:46:45.981Z,83.30
2018-10-12T19:49:13.549Z,83.60
2018-10-12T19:51:41.061Z,83.70
2018-10-12T19:54:08.593Z,83.90
2018-10-12T19:56:36.109Z,84.20
2018-10-12T19:59:03.696Z,84.60
2018-10-12T20:01:31.219Z,85.30
2018-10-12T20:03:58.726Z,85.40
2018-10-12T20:06:26.251Z,85.30
2018-10-12T20:08:53.795Z,85.40
2018-10-12T20:11:21.352Z,85.60
2018-10-12T20:13:48.850Z,86.10
2018-10-12T20:16:16.395Z,86.10
2018-10-12T20:18:43.926Z,86.30
2018-10-12T20:21:11.427Z,86.70
2018-10-12T20:23:38.977Z,86.90
2018-10-12T20:26:06.619Z,87.30
2018-10-12T20:28:34.202Z,87.50
2018-10-12T20:31:01.728Z,87.90
2018-10-12T20:33:29.223Z,88.10
2018-10-12T20:35:56.751Z,88.40
2018-10-12T20:38:24.252Z,88.60
2018-10-12T20:40:51.771Z,88.90
2018-10-12T20:43:19.320Z,89.20
2018-10-12T20:45:46.830Z,89.30
2018-10-12T20:48:14.369Z,89.60
2018-10-12T20:50:42.041Z,89.80
2018-10-12T20:53:09.529Z,90.00
2018-10-12T20:55:37.032Z,90.10
2018-10-12T20:58:09.110Z,90.20
2018-10-12T21:00:36.683Z,90.30
2018-10-12T21:03:04.135Z,90.40
2018-10-12T21:05:31.663Z,90.50
2018-10-12T21:07:59.205Z,90.70
2018-10-12T21:10:26.822Z,90.80
2018-10-12T21:12:54.385Z,90.80
2018-10-12T21:15:21.957Z,91.00
2018-10-12T21:17:49.507Z,91.40
2018-10-12T21:20:16.968Z,91.60
2018-10-12T21:22:44.451Z,91.30
2018-10-12T21:25:11.928Z,91.40
2018-10-12T21:27:39.411Z,91.60
2018-10-12T21:30:06.979Z,91.60
2018-10-12T21:32:34.464Z,91.80
2018-10-12T21:35:01.935Z,91.80
2018-10-12T21:37:29.421Z,91.90
2018-10-12T21:39:56.934Z,91.90
2018-10-12T21:42:24.439Z,92.10
2018-10-12T21:44:51.897Z,92.20
2018-10-12T21:47:19.458Z,92.20
2018-10-12T21:49:46.979Z,92.50
2018-10-12T21:52:14.432Z,92.30
2018-10-12T21:54:41.919Z,92.40
2018-10-12T21:57:09.392Z,92.50
2018-10-12T21:59:36.860Z,92.60
2018-10-12T22:02:04.359Z,92.60
2018-10-12T22:04:31.876Z,92.70
2018-10-12T22:06:59.393Z,92.80
2018-10-12T22:09:26.906Z,92.90
2018-10-12T22:11:54.429Z,93.00
2018-10-12T22:14:21.977Z,93.00
2018-10-12T22:16:49.551Z,93.10
2018-10-12T22:19:17.147Z,93.10
2018-10-12T22:21:44.563Z,93.20
2018-10-12T22:24:12.156Z,93.30
2018-10-12T22:26:39.703Z,93.40
2018-10-12T22:29:07.159Z,93.80
2018-10-12T22:31:34.668Z,93.50
2018-10-12T22:34:02.150Z,93.60
2018-10-12T22:36:29.679Z,93.80
2018-10-12T22:38:57.156Z,93.80
2018-10-12T22:41:24.665Z,93.90
2018-10-12T22:43:52.157Z,93.90
2018-10-12T22:46:19.678Z,94.00
2018-10-12T22:48:47.156Z,94.10
2018-10-12T22:51:14.627Z,94.10
2018-10-12T22:53:42.072Z,94.20
2018-10-12T22:56:09.588Z,94.30
2018-10-12T22:58:37.131Z,94.40
2018-10-12T23:01:04.688Z,94.60
2018-10-12T23:03:32.152Z,94.80
2018-10-12T23:05:59.637Z,94.80
2018-10-12T23:08:27.105Z,94.90
2018-10-12T23:10:54.617Z,94.90
2018-10-12T23:13:22.093Z,94.90
2018-10-12T23:15:49.581Z,94.90
2018-10-12T23:18:17.059Z,95.00
2018-10-12T23:20:44.596Z,95.10
2018-10-12T23:23:12.120Z,95.50
2018-10-12T23:25:39.611Z,95.20
2018-10-12T23:28:07.092Z,95.30
2018-10-12T23:30:34.558Z,95.30
2018-10-12T23:33:13.432Z,95.40
2018-10-12T23:35:40.968Z,95.50
2018-10-12T23:38:08.464Z,95.50
2018-10-12T23:40:35.958Z,95.70
2018-10-12T23:43:05.441Z,96.00
2018-10-12T23:45:32.904Z,96.10
2018-10-12T23:48:00.392Z,95.90
2018-10-12T23:50:27.921Z,95.80
2018-10-12T23:52:55.370Z,96.00
2018-10-12T23:55:22.877Z,96.00
2018-10-12T23:57:50.373Z,96.10
